createdAt,value
2022-09-22T00:00:02.854Z,8.23
2022-09-22T00:05:02.625Z,8.23
2022-09-22T00:10:03.242Z,8.1
2022-09-22T00:15:03.050Z,7.94
2022-09-22T00:20:02.706Z,7.84
2022-09-22T00:25:03.417Z,7.8
2022-09-22T00:30:07.127Z,7.57
2022-09-22T00:35:03.386Z,7.35
2022-09-22T00:40:03.916Z,7.71
2022-09-22T00:45:03.276Z,7.63
2022-09-22T00:50:03.158Z,7.41
2022-09-22T00:55:03.680Z,7.41
2022-09-22T01:00:03.431Z,7.12
2022-09-22T01:05:03.149Z,6.91
2022-09-22T01:10:02.984Z,6.88
2022-09-22T01:15:03.658Z,6.92
2022-09-22T01:20:03.045Z,6.94
2022-09-22T01:25:02.754Z,7.04
2022-09-22T01:30:03.428Z,7.02
2022-09-22T01:35:03.037Z,6.99
2022-09-22T01:40:03.074Z,6.94
2022-09-22T01:45:03.552Z,6.89
2022-09-22T01:50:02.619Z,6.88
2022-09-22T01:55:03.970Z,6.98
2022-09-22T02:00:02.860Z,7.08
2022-09-22T02:05:03.473Z,6.98
2022-09-22T02:10:03.469Z,6.69
2022-09-22T02:15:02.942Z,5.95
2022-09-22T02:20:02.890Z,6.2
2022-09-22T02:25:03.553Z,6.69
2022-09-22T02:30:03.137Z,6.93
2022-09-22T02:35:02.821Z,6.59
2022-09-22T02:40:03.847Z,6.04
2022-09-22T02:45:03.141Z,5.94
2022-09-22T02:50:02.818Z,5.58
2022-09-22T02:55:04.197Z,5.04
2022-09-22T03:00:03.239Z,4.89
2022-09-22T03:05:03.220Z,5.09
2022-09-22T03:10:03.439Z,5.38
2022-09-22T03:15:03.201Z,6.43
2022-09-22T03:20:02.886Z,6.56
2022-09-22T03:25:03.513Z,6.31
2022-09-22T03:30:03.178Z,5.85
2022-09-22T03:35:02.764Z,5.66
2022-09-22T03:40:03.598Z,5.54
2022-09-22T03:45:03.080Z,5.97
2022-09-22T03:50:02.633Z,6.24
2022-09-22T03:55:04.328Z,6.22
2022-09-22T04:00:03.021Z,6.1
2022-09-22T04:05:02.652Z,5.9
2022-09-22T04:10:03.475Z,5.3
2022-09-22T04:15:03.085Z,4.63
2022-09-22T04:20:02.743Z,4.06
2022-09-22T04:25:03.515Z,3.55
2022-09-22T04:30:03.154Z,3.2
2022-09-22T04:35:03.035Z,3.56
2022-09-22T04:40:03.129Z,3.34
2022-09-22T04:45:03.246Z,3.39
2022-09-22T04:50:02.980Z,3.15
2022-09-22T04:55:04.498Z,2.83
2022-09-22T05:00:03.413Z,3.07
2022-09-22T05:05:03.169Z,3.47
2022-09-22T05:10:02.986Z,3.29
2022-09-22T05:15:03.436Z,3.44
2022-09-22T05:20:03.111Z,3.36
2022-09-22T05:25:02.779Z,3.74
2022-09-22T05:30:03.417Z,3.91
2022-09-22T05:35:03.000Z,4.82
2022-09-22T05:40:03.166Z,5.06
2022-09-22T05:45:03.384Z,6.9
2022-09-22T05:50:03.052Z,8.78
2022-09-22T05:55:03.884Z,9.73
2022-09-22T06:00:03.450Z,9.41
2022-09-22T06:05:03.049Z,9.01
2022-09-22T06:10:02.759Z,9.27
2022-09-22T06:15:03.612Z,10.4
2022-09-22T06:20:03.321Z,10.77
2022-09-22T06:25:03.014Z,11.44
2022-09-22T06:30:02.665Z,12.44
2022-09-22T06:35:03.332Z,12.59
2022-09-22T06:40:03.175Z,13.9
2022-09-22T06:45:02.672Z,14.98
2022-09-22T06:50:03.088Z,15.67
2022-09-22T06:55:04.221Z,15.97
2022-09-22T07:00:03.050Z,15.98
2022-09-22T07:05:02.689Z,16.21
2022-09-22T07:10:03.391Z,15.27
2022-09-22T07:15:03.064Z,15.6
2022-09-22T07:20:02.757Z,16.26
2022-09-22T07:25:03.358Z,15.66
2022-09-22T07:30:02.912Z,15.77
2022-09-22T07:35:02.795Z,15.79
2022-09-22T07:40:03.848Z,15.64
2022-09-22T07:45:03.222Z,15.18
2022-09-22T07:50:02.966Z,15.23
2022-09-22T07:55:03.639Z,15.92
2022-09-22T08:00:03.403Z,16.81
2022-09-22T08:05:03.061Z,17.87
2022-09-22T08:10:02.846Z,16.41
2022-09-22T08:15:03.598Z,17.39
2022-09-22T08:20:03.244Z,17.38
2022-09-22T08:25:02.907Z,16.37
2022-09-22T08:30:03.695Z,17.45
2022-09-22T08:35:03.370Z,16.9
2022-09-22T08:40:03.293Z,17.21
2022-09-22T08:45:03.578Z,17.84
2022-09-22T08:50:03.317Z,17.08
2022-09-22T08:55:03.917Z,17.31
2022-09-22T09:00:02.818Z,16.58
2022-09-22T09:05:02.834Z,18.35
2022-09-22T09:10:03.586Z,19.24
2022-09-22T09:15:03.329Z,18.68
2022-09-22T09:20:02.869Z,17.45
2022-09-22T09:25:28.682Z,18.76
2022-09-22T09:30:03.368Z,19.6
2022-09-22T09:40:02.888Z,18.51
2022-09-22T09:45:03.564Z,19.3
2022-09-22T09:50:03.194Z,19.42
2022-09-22T09:55:03.968Z,19.24
2022-09-22T10:00:03.091Z,19.38
2022-09-22T10:05:02.694Z,21.26
2022-09-22T10:10:02.643Z,20.26
2022-09-22T10:15:03.390Z,18.62
2022-09-22T10:20:03.496Z,19.36
2022-09-22T10:25:03.036Z,19.01
2022-09-22T10:30:02.734Z,19.5
2022-09-22T10:35:03.313Z,20.28
2022-09-22T10:40:03.407Z,20.79
2022-09-22T10:45:02.717Z,17.5
2022-09-22T10:50:03.371Z,19.98
2022-09-22T10:55:03.753Z,18.47
2022-09-22T11:00:02.733Z,16.13
2022-09-22T11:05:03.374Z,16.67
2022-09-22T11:10:02.651Z,15.76
2022-09-22T11:15:02.554Z,18.08
2022-09-22T11:20:03.256Z,19.5
2022-09-22T11:25:02.952Z,19.6
2022-09-22T11:30:13.470Z,19.39
2022-09-22T11:35:03.217Z,19.46
2022-09-22T11:40:02.953Z,20.35
2022-09-22T11:45:03.064Z,21.11
2022-09-22T11:50:02.734Z,20.08
2022-09-22T11:55:04.442Z,22.11
2022-09-22T12:00:03.016Z,20.74
2022-09-22T12:05:02.662Z,19.98
2022-09-22T12:10:03.402Z,20.59
2022-09-22T12:15:03.101Z,21.82
2022-09-22T12:20:02.871Z,23.5
2022-09-22T12:25:03.569Z,21.28
2022-09-22T12:30:03.093Z,21.04
2022-09-22T12:35:02.745Z,20.1
2022-09-22T12:40:03.628Z,20.13
2022-09-22T12:45:03.144Z,19.69
2022-09-22T12:50:02.885Z,19.55
2022-09-22T12:55:04.593Z,19.59
2022-09-22T13:00:03.259Z,21.75
2022-09-22T13:05:02.940Z,20.54
2022-09-22T13:10:02.694Z,19.78
2022-09-22T13:15:03.468Z,19.82
2022-09-22T13:20:03.260Z,19.81
2022-09-22T13:25:02.891Z,21.49
2022-09-22T13:30:02.759Z,21.48
2022-09-22T13:35:03.419Z,20.6
2022-09-22T13:40:03.475Z,20.67
2022-09-22T13:45:02.887Z,20.22
2022-09-22T13:50:03.675Z,20.6
2022-09-22T13:55:04.254Z,20.34
2022-09-22T14:00:02.865Z,21.49
2022-09-22T14:05:03.403Z,20.58
2022-09-22T14:10:03.020Z,20.14
2022-09-22T14:15:02.756Z,20.21
2022-09-22T14:20:03.461Z,20.71
2022-09-22T14:25:03.047Z,18.84
2022-09-22T14:30:02.784Z,19.28
2022-09-22T14:35:03.574Z,19.64
2022-09-22T14:40:03.758Z,20.42
2022-09-22T14:45:02.920Z,20.49
2022-09-22T14:50:03.417Z,19.94
2022-09-22T14:55:04.308Z,20.6
2022-09-22T15:00:02.821Z,20.02
2022-09-22T15:05:02.474Z,20.22
2022-09-22T15:10:03.071Z,20.46
2022-09-22T15:15:02.615Z,19.71
2022-09-22T15:20:02.362Z,19.21
2022-09-22T15:25:02.857Z,19.64
2022-09-22T15:30:02.608Z,19.26
2022-09-22T15:35:03.344Z,21.05
2022-09-22T15:40:03.294Z,22.38
2022-09-22T15:45:02.925Z,21.8
2022-09-22T15:50:03.388Z,21.31
2022-09-22T15:55:04.231Z,21.05
2022-09-22T16:00:02.570Z,21.33
2022-09-22T16:05:03.252Z,21.19
2022-09-22T16:10:03.063Z,21.21
2022-09-22T16:15:02.659Z,20.32
2022-09-22T16:20:03.292Z,19.61
2022-09-22T16:25:02.917Z,20.18
2022-09-22T16:30:02.483Z,19.13
2022-09-22T16:35:03.333Z,17.69
2022-09-22T16:40:03.501Z,16.27
2022-09-22T16:45:02.806Z,14.91
2022-09-22T16:50:03.366Z,13.62
2022-09-22T16:55:04.066Z,12.54
2022-09-22T17:00:02.667Z,11.95
2022-09-22T17:05:03.294Z,11.56
2022-09-22T17:10:02.866Z,11.33
2022-09-22T17:15:02.699Z,11.39
2022-09-22T17:20:03.544Z,11.1
2022-09-22T17:25:03.071Z,10.32
2022-09-22T17:30:02.904Z,10.02
2022-09-22T17:35:03.492Z,10.51
2022-09-22T17:40:03.293Z,11.12
2022-09-22T17:45:02.677Z,11.05
2022-09-22T17:50:03.470Z,10.21
2022-09-22T17:55:04.270Z,9.67
2022-09-22T18:00:02.739Z,9.38
2022-09-22T18:05:03.204Z,9.47
2022-09-22T18:10:03.040Z,10.18
2022-09-22T18:15:02.778Z,10.42
2022-09-22T18:20:03.972Z,9.58
2022-09-22T18:25:03.083Z,8.98
2022-09-22T18:30:02.794Z,9.39
2022-09-22T18:35:03.333Z,9.66
2022-09-22T18:40:03.261Z,9.04
2022-09-22T18:45:02.578Z,7.6
2022-09-22T18:50:03.392Z,7.91
2022-09-22T18:55:04.354Z,7.65
2022-09-22T19:00:02.873Z,7.46
2022-09-22T19:05:03.529Z,7.52
2022-09-22T19:10:03.323Z,8.23
2022-09-22T19:15:03.022Z,8.9
2022-09-22T19:20:02.641Z,9.03
2022-09-22T19:25:03.242Z,8.95
2022-09-22T19:30:02.921Z,8.81
2022-09-22T19:35:03.508Z,8.63
2022-09-22T19:40:03.649Z,8.41
2022-09-22T19:45:02.916Z,8.06
2022-09-22T19:50:03.342Z,8.22
2022-09-22T19:55:04.469Z,7.88
2022-09-22T20:00:02.931Z,7.06
2022-09-22T20:05:03.570Z,6.28
2022-09-22T20:10:03.258Z,5.72
2022-09-22T20:15:03.133Z,5.47
2022-09-22T20:20:02.885Z,5.1
2022-09-22T20:25:03.385Z,5.21
2022-09-22T20:30:03.051Z,5.39
2022-09-22T20:35:02.623Z,5.37
2022-09-22T20:40:03.478Z,5.54
2022-09-22T20:45:03.076Z,5.41
2022-09-22T20:50:02.645Z,5.37
2022-09-22T20:55:04.270Z,5.55
2022-09-22T21:00:02.907Z,4.68
2022-09-22T21:05:02.809Z,5.26
2022-09-22T21:10:03.448Z,5.5
2022-09-22T21:15:03.122Z,5.7
2022-09-22T21:20:03.202Z,6.71
2022-09-22T21:25:02.921Z,6.53
2022-09-22T21:30:03.488Z,6.26
2022-09-22T21:35:03.044Z,6.44
2022-09-22T21:40:03.233Z,6.52
2022-09-22T21:45:03.344Z,6.72
2022-09-22T21:50:02.900Z,6.66
2022-09-22T21:55:04.523Z,5.99
2022-09-22T22:00:03.179Z,5.54
2022-09-22T22:05:02.743Z,5.25
2022-09-22T22:10:03.377Z,4.89
2022-09-22T22:15:02.896Z,5.8
2022-09-22T22:20:03.426Z,5.65
2022-09-22T22:25:03.004Z,6.02
2022-09-22T22:30:03.158Z,6.38
2022-09-22T22:35:03.331Z,6.43
2022-09-22T22:40:03.140Z,6.24
2022-09-22T22:45:02.627Z,5.4
2022-09-22T22:50:03.240Z,4.71
2022-09-22T22:55:04.605Z,3.95
2022-09-22T23:00:02.655Z,3.27
2022-09-22T23:05:03.614Z,3.25
2022-09-22T23:10:02.913Z,3.28
2022-09-22T23:15:02.954Z,3.81
2022-09-22T23:20:02.748Z,4.39
2022-09-22T23:25:03.159Z,4.05
2022-09-22T23:30:02.834Z,3.9
2022-09-22T23:35:02.479Z,4.67
2022-09-22T23:40:03.300Z,5.2
2022-09-22T23:45:02.776Z,4.75
2022-09-22T23:50:02.494Z,4.74
2022-09-22T23:55:04.514Z,5.12
